createdAt,value
2019-05-17T00:01:29.976Z,3.53
2019-05-17T00:04:19.541Z,2.87
2019-05-17T00:07:09.716Z,2.97
2019-05-17T00:09:59.500Z,2.90
2019-05-17T00:12:50.306Z,3.43
2019-05-17T00:15:40.381Z,2.80
2019-05-17T00:18:30.136Z,2.97
2019-05-17T00:21:20.171Z,3.10
2019-05-17T00:24:10.621Z,3.50
2019-05-17T00:27:00.416Z,3.10
2019-05-17T00:29:50.026Z,3.83
2019-05-17T00:32:39.740Z,3.43
2019-05-17T00:35:29.672Z,3.63
2019-05-17T00:38:19.286Z,2.80
2019-05-17T00:41:09.186Z,2.93
2019-05-17T00:43:59.097Z,3.30
2019-05-17T00:46:48.381Z,3.20
2019-05-17T00:49:38.744Z,3.30
2019-05-17T00:52:28.456Z,3.13
2019-05-17T00:55:18.875Z,3.00
2019-05-17T00:58:08.711Z,3.50
2019-05-17T01:00:58.941Z,3.47
2019-05-17T01:03:49.572Z,3.10
2019-05-17T01:06:51.596Z,2.90
2019-05-17T01:09:41.444Z,3.10
2019-05-17T01:12:31.362Z,3.47
2019-05-17T01:15:21.271Z,3.87
2019-05-17T01:18:11.576Z,2.97
2019-05-17T01:21:01.636Z,3.53
2019-05-17T01:23:51.420Z,3.40
2019-05-17T01:26:41.656Z,3.20
2019-05-17T01:29:32.308Z,3.30
2019-05-17T01:32:21.846Z,3.60
2019-05-17T01:35:12.097Z,3.97
2019-05-17T01:38:02.311Z,3.57
2019-05-17T01:40:52.220Z,4.30
2019-05-17T01:43:42.392Z,3.70
2019-05-17T01:46:32.612Z,3.53
2019-05-17T01:49:23.256Z,4.13
2019-05-17T01:52:12.751Z,3.80
2019-05-17T01:55:11.946Z,3.27
2019-05-17T01:58:02.401Z,3.57
2019-05-17T02:00:52.542Z,3.80
2019-05-17T02:03:42.781Z,3.60
2019-05-17T02:06:32.496Z,3.60
2019-05-17T02:09:34.978Z,3.50
2019-05-17T02:12:13.052Z,3.70
2019-05-17T02:15:03.131Z,3.50
2019-05-17T02:17:53.841Z,3.73
2019-05-17T02:20:46.321Z,3.30
2019-05-17T02:23:37.230Z,3.93
2019-05-17T02:26:26.738Z,3.40
2019-05-17T02:29:16.666Z,3.93
2019-05-17T02:32:06.511Z,2.87
2019-05-17T02:34:56.393Z,3.93
2019-05-17T02:37:45.992Z,3.37
2019-05-17T02:40:36.256Z,3.20
2019-05-17T02:43:25.511Z,3.57
2019-05-17T02:46:15.742Z,3.23
2019-05-17T02:49:06.077Z,3.87
2019-05-17T02:51:56.710Z,4.67
2019-05-17T02:54:46.757Z,5.17
2019-05-17T02:57:36.521Z,4.80
2019-05-17T03:00:26.400Z,5.50
2019-05-17T03:03:17.848Z,4.83
2019-05-17T03:06:08.066Z,5.27
2019-05-17T03:08:57.922Z,6.53
2019-05-17T03:11:48.865Z,6.23
2019-05-17T03:14:38.746Z,5.60
2019-05-17T03:17:28.816Z,6.73
2019-05-17T03:20:19.312Z,5.70
2019-05-17T03:23:12.432Z,7.40
2019-05-17T03:26:04.090Z,8.17
2019-05-17T03:28:54.076Z,7.07
2019-05-17T03:31:53.500Z,8.27
2019-05-17T03:34:37.352Z,7.83
2019-05-17T03:37:33.042Z,8.27
2019-05-17T03:40:43.847Z,7.77
2019-05-17T03:43:13.838Z,7.97
2019-05-17T03:46:02.924Z,9.57
2019-05-17T03:48:53.601Z,7.20
2019-05-17T03:51:44.157Z,8.07
2019-05-17T03:54:35.037Z,8.87
2019-05-17T03:57:24.927Z,8.87
2019-05-17T04:00:18.002Z,9.77
2019-05-17T04:03:07.966Z,8.80
2019-05-17T04:05:57.817Z,9.87
2019-05-17T04:08:48.069Z,8.90
2019-05-17T04:11:39.256Z,10.20
2019-05-17T04:14:33.318Z,9.33
2019-05-17T04:17:22.718Z,8.80
2019-05-17T04:20:13.939Z,8.97
2019-05-17T04:23:23.558Z,9.23
2019-05-17T04:26:13.883Z,9.60
2019-05-17T04:29:04.381Z,10.00
2019-05-17T04:31:55.407Z,10.53
2019-05-17T04:34:45.271Z,9.97
2019-05-17T04:37:38.294Z,15.43
2019-05-17T04:40:26.497Z,15.20
2019-05-17T04:43:16.046Z,10.00
2019-05-17T04:46:05.502Z,8.80
2019-05-17T04:48:55.507Z,8.27
2019-05-17T04:51:45.342Z,9.83
2019-05-17T04:54:35.811Z,8.43
2019-05-17T04:57:26.358Z,7.57
2019-05-17T05:00:16.481Z,7.67
2019-05-17T05:03:06.412Z,7.10
2019-05-17T05:05:55.923Z,7.53
2019-05-17T05:08:46.537Z,7.30
2019-05-17T05:11:51.985Z,6.93
2019-05-17T05:14:27.232Z,7.07
2019-05-17T05:17:17.833Z,7.70
2019-05-17T05:20:26.721Z,7.00
2019-05-17T05:23:16.227Z,7.20
2019-05-17T05:26:06.363Z,6.03
2019-05-17T05:28:56.702Z,7.40
2019-05-17T05:31:46.691Z,6.40
2019-05-17T05:34:36.546Z,6.43
2019-05-17T05:37:27.521Z,6.50
2019-05-17T05:40:17.216Z,7.10
2019-05-17T05:43:07.279Z,6.60
2019-05-17T05:45:56.957Z,6.87
2019-05-17T05:48:46.920Z,6.80
2019-05-17T05:51:36.766Z,5.87
2019-05-17T05:54:27.041Z,7.23
2019-05-17T05:57:16.867Z,7.33
2019-05-17T06:00:08.482Z,8.00
2019-05-17T06:02:58.322Z,6.93
2019-05-17T06:05:48.320Z,8.37
2019-05-17T06:08:38.166Z,7.63
2019-05-17T06:11:27.653Z,7.80
2019-05-17T06:14:17.981Z,7.93
2019-05-17T06:17:08.216Z,7.93
2019-05-17T06:19:58.466Z,7.23
2019-05-17T06:22:51.727Z,7.37
2019-05-17T06:25:43.463Z,7.10
2019-05-17T06:28:33.428Z,6.90
2019-05-17T06:31:24.110Z,7.03
2019-05-17T06:34:15.198Z,7.53
2019-05-17T06:37:06.300Z,7.03
2019-05-17T06:39:56.547Z,6.23
2019-05-17T06:42:46.882Z,6.13
2019-05-17T06:45:37.341Z,6.63
2019-05-17T06:48:27.021Z,7.07
2019-05-17T06:51:17.056Z,7.10
2019-05-17T06:54:06.716Z,7.30
2019-05-17T06:56:59.580Z,5.33
2019-05-17T06:59:49.346Z,6.77
2019-05-17T07:02:40.207Z,5.63
2019-05-17T07:05:33.196Z,6.43
2019-05-17T07:08:23.101Z,6.23
2019-05-17T07:11:12.890Z,5.83
2019-05-17T07:14:02.721Z,5.70
2019-05-17T07:16:52.616Z,5.20
2019-05-17T07:19:43.286Z,5.83
2019-05-17T07:22:33.121Z,5.50
2019-05-17T07:25:23.021Z,5.53
2019-05-17T07:28:13.276Z,5.97
2019-05-17T07:31:03.107Z,6.13
2019-05-17T07:33:53.023Z,5.67
2019-05-17T07:36:42.616Z,4.83
2019-05-17T07:39:33.060Z,4.97
2019-05-17T07:42:22.961Z,4.10
2019-05-17T07:45:13.345Z,3.93
2019-05-17T07:48:03.351Z,3.70
2019-05-17T07:50:53.181Z,3.00
2019-05-17T07:53:43.141Z,3.03
2019-05-17T07:56:32.533Z,3.00
2019-05-17T07:59:24.186Z,3.17
2019-05-17T08:02:14.146Z,3.30
2019-05-17T08:05:04.707Z,3.00
2019-05-17T08:07:54.616Z,2.77
2019-05-17T08:10:44.779Z,3.07
2019-05-17T08:13:34.782Z,2.70
2019-05-17T08:16:24.436Z,2.60
2019-05-17T08:19:14.101Z,2.80
2019-05-17T08:22:03.701Z,2.70
2019-05-17T08:24:53.916Z,2.77
2019-05-17T08:27:43.742Z,3.30
2019-05-17T08:30:33.163Z,2.80
2019-05-17T08:33:23.798Z,3.07
2019-05-17T08:36:14.064Z,2.80
2019-05-17T08:39:04.376Z,2.33
2019-05-17T08:41:55.356Z,2.47
2019-05-17T08:44:46.469Z,2.87
2019-05-17T08:47:39.376Z,2.43
2019-05-17T08:50:29.412Z,2.40
2019-05-17T08:53:19.974Z,2.40
2019-05-17T08:56:10.193Z,1.90
2019-05-17T08:59:00.867Z,2.07
2019-05-17T09:01:50.666Z,1.97
2019-05-17T09:04:41.021Z,2.00
2019-05-17T09:07:31.056Z,1.80
2019-05-17T09:10:21.316Z,2.33
2019-05-17T09:13:14.681Z,2.40
2019-05-17T09:16:03.261Z,2.33
2019-05-17T09:18:52.963Z,2.70
2019-05-17T09:21:42.781Z,2.10
2019-05-17T09:24:32.741Z,2.00
2019-05-17T09:27:22.640Z,2.13
2019-05-17T09:30:13.314Z,2.23
2019-05-17T09:33:03.954Z,1.90
2019-05-17T09:35:53.782Z,1.93
2019-05-17T09:38:44.552Z,1.73
2019-05-17T09:41:34.466Z,1.90
2019-05-17T09:44:26.086Z,1.80
2019-05-17T09:47:15.983Z,1.70
2019-05-17T09:50:06.795Z,1.60
2019-05-17T09:52:56.931Z,1.80
2019-05-17T09:55:46.961Z,1.60
2019-05-17T09:58:39.507Z,1.33
2019-05-17T10:01:30.315Z,1.27
2019-05-17T10:04:20.157Z,1.37
2019-05-17T10:07:10.266Z,1.57
2019-05-17T10:10:01.031Z,1.13
2019-05-17T10:12:51.557Z,1.23
2019-05-17T10:15:41.888Z,1.40
2019-05-17T10:18:31.824Z,1.30
2019-05-17T10:21:21.696Z,1.70
2019-05-17T10:24:11.901Z,1.70
2019-05-17T10:27:01.637Z,1.72
2019-05-17T10:29:51.755Z,1.50
2019-05-17T10:32:41.506Z,1.32
2019-05-17T10:35:31.322Z,1.47
2019-05-17T10:38:21.180Z,0.98
2019-05-17T10:41:11.101Z,1.60
2019-05-17T10:44:01.031Z,1.17
2019-05-17T10:46:51.077Z,1.00
2019-05-17T10:49:40.555Z,1.05
2019-05-17T10:52:30.440Z,0.82
2019-05-17T10:55:20.386Z,1.02
2019-05-17T10:58:10.626Z,1.02
2019-05-17T11:01:00.974Z,1.00
2019-05-17T11:03:51.301Z,0.70
2019-05-17T11:06:40.757Z,1.07
2019-05-17T11:09:31.385Z,0.88
2019-05-17T11:12:21.866Z,1.17
2019-05-17T11:15:12.211Z,0.88
2019-05-17T11:18:02.651Z,1.30
2019-05-17T11:20:52.865Z,0.95
2019-05-17T11:23:42.305Z,0.70
2019-05-17T11:26:32.397Z,1.42
2019-05-17T11:29:22.421Z,1.15
2019-05-17T11:32:12.182Z,1.20
2019-05-17T11:35:01.564Z,1.10
2019-05-17T11:37:51.321Z,1.17
2019-05-17T11:40:41.462Z,1.00
2019-05-17T11:43:31.367Z,1.40
2019-05-17T11:46:35.287Z,0.93
2019-05-17T11:49:12.702Z,1.30
2019-05-17T11:52:02.528Z,0.82
2019-05-17T11:54:52.861Z,1.27
2019-05-17T11:57:42.246Z,1.05
2019-05-17T12:00:32.657Z,0.88
2019-05-17T12:03:22.901Z,0.85
2019-05-17T12:06:13.176Z,0.90
2019-05-17T12:09:06.392Z,1.02
2019-05-17T12:11:56.226Z,1.00
2019-05-17T12:14:46.175Z,0.65
2019-05-17T12:17:36.067Z,1.00
2019-05-17T12:20:26.630Z,0.98
2019-05-17T12:23:16.297Z,1.22
2019-05-17T12:26:06.943Z,1.22
2019-05-17T12:28:57.357Z,0.90
2019-05-17T12:31:47.813Z,0.82
2019-05-17T12:34:37.856Z,1.00
2019-05-17T12:37:28.067Z,1.10
2019-05-17T12:40:19.381Z,1.00
2019-05-17T12:43:09.926Z,0.98
2019-05-17T12:46:01.980Z,1.55
2019-05-17T12:48:52.006Z,0.95
2019-05-17T12:51:41.822Z,1.10
2019-05-17T12:54:31.781Z,1.15
2019-05-17T12:57:21.036Z,0.93
2019-05-17T13:00:11.807Z,1.02
2019-05-17T13:03:01.506Z,1.22
2019-05-17T13:05:52.811Z,0.82
2019-05-17T13:08:42.411Z,1.05
2019-05-17T13:11:32.153Z,0.75
2019-05-17T13:14:23.122Z,0.88
2019-05-17T13:17:12.801Z,0.72
2019-05-17T13:20:02.982Z,1.12
2019-05-17T13:22:53.195Z,1.25
2019-05-17T13:25:43.141Z,0.75
2019-05-17T13:28:33.173Z,0.90
2019-05-17T13:31:22.981Z,0.90
2019-05-17T13:34:12.536Z,1.07
2019-05-17T13:37:02.257Z,1.35
2019-05-17T13:39:52.388Z,1.30
2019-05-17T13:42:42.545Z,1.10
2019-05-17T13:45:32.638Z,0.88
2019-05-17T13:48:22.488Z,1.77
2019-05-17T13:51:12.776Z,1.12
2019-05-17T13:54:02.626Z,1.10
2019-05-17T13:56:52.236Z,1.00
2019-05-17T13:59:41.922Z,1.00
2019-05-17T14:02:31.747Z,1.00
2019-05-17T14:05:21.661Z,1.10
2019-05-17T14:08:11.617Z,0.95
2019-05-17T14:11:02.075Z,0.85
2019-05-17T14:13:53.506Z,0.98
2019-05-17T14:16:43.267Z,1.10
2019-05-17T14:19:33.184Z,1.27
2019-05-17T14:22:22.604Z,1.20
2019-05-17T14:25:13.273Z,1.12
2019-05-17T14:28:03.925Z,1.02
2019-05-17T14:30:53.957Z,1.00
2019-05-17T14:33:44.198Z,1.20
2019-05-17T14:36:34.211Z,1.55
2019-05-17T14:39:23.911Z,0.98
2019-05-17T14:42:13.826Z,1.02
2019-05-17T14:45:03.297Z,1.35
2019-05-17T14:47:53.781Z,0.70
2019-05-17T14:50:43.674Z,1.15
2019-05-17T14:53:33.181Z,1.15
2019-05-17T14:56:23.206Z,1.10
2019-05-17T14:59:13.369Z,1.00
2019-05-17T15:02:03.190Z,0.78
2019-05-17T15:04:54.481Z,1.00
2019-05-17T15:07:44.278Z,1.20
2019-05-17T15:10:34.301Z,1.00
2019-05-17T15:13:24.924Z,1.27
2019-05-17T15:16:14.582Z,1.50
2019-05-17T15:19:04.388Z,1.00
2019-05-17T15:21:54.312Z,1.20
2019-05-17T15:24:45.004Z,1.20
2019-05-17T15:27:34.996Z,1.00
2019-05-17T15:30:24.336Z,0.70
2019-05-17T15:33:14.026Z,0.90
2019-05-17T15:36:04.361Z,0.80
2019-05-17T15:38:54.800Z,1.02
2019-05-17T15:41:44.363Z,0.80
2019-05-17T15:44:35.411Z,0.75
2019-05-17T15:47:25.503Z,1.22
2019-05-17T15:50:15.891Z,0.80
2019-05-17T15:53:05.977Z,1.40
2019-05-17T15:55:55.921Z,1.10
2019-05-17T15:58:45.502Z,1.10
2019-05-17T16:01:35.191Z,1.00
2019-05-17T16:04:25.022Z,1.17
2019-05-17T16:07:14.777Z,1.20
2019-05-17T16:10:05.510Z,0.90
2019-05-17T16:13:02.208Z,1.47
2019-05-17T16:15:49.698Z,1.20
2019-05-17T16:18:41.291Z,1.17
2019-05-17T16:21:31.257Z,0.72
2019-05-17T16:24:21.537Z,1.20
2019-05-17T16:27:11.267Z,1.30
2019-05-17T16:30:00.890Z,1.47
2019-05-17T16:32:52.126Z,1.25
2019-05-17T16:35:42.343Z,1.20
2019-05-17T16:38:32.821Z,1.50
2019-05-17T16:41:22.940Z,1.32
2019-05-17T16:44:14.638Z,1.50
2019-05-17T16:47:04.301Z,1.60
2019-05-17T16:49:54.416Z,1.20
2019-05-17T16:52:43.752Z,1.17
2019-05-17T16:55:33.573Z,2.10
2019-05-17T16:58:23.123Z,1.42
2019-05-17T17:01:13.039Z,1.62
2019-05-17T17:04:04.050Z,1.85
2019-05-17T17:06:53.489Z,1.75
2019-05-17T17:09:42.925Z,1.50
2019-05-17T17:12:32.821Z,1.90
2019-05-17T17:15:22.695Z,2.25
2019-05-17T17:18:12.356Z,2.40
2019-05-17T17:21:02.457Z,2.00
2019-05-17T17:23:51.951Z,1.87
2019-05-17T17:26:42.303Z,2.47
2019-05-17T17:29:32.667Z,2.50
2019-05-17T17:32:22.781Z,2.83
2019-05-17T17:35:14.746Z,2.57
2019-05-17T17:38:04.956Z,2.50
2019-05-17T17:40:55.856Z,2.20
2019-05-17T17:43:57.404Z,2.13
2019-05-17T17:46:36.937Z,2.77
2019-05-17T17:49:26.801Z,2.77
2019-05-17T17:52:16.771Z,2.83
2019-05-17T17:55:06.948Z,2.90
2019-05-17T17:57:56.746Z,3.03
2019-05-17T18:00:46.976Z,2.90
2019-05-17T18:03:36.706Z,3.00
2019-05-17T18:06:26.411Z,3.10
2019-05-17T18:09:15.948Z,3.17
2019-05-17T18:12:05.817Z,2.80
2019-05-17T18:14:56.061Z,3.33
2019-05-17T18:17:46.186Z,3.03
2019-05-17T18:20:36.016Z,2.67
2019-05-17T18:23:25.822Z,3.07
2019-05-17T18:26:16.077Z,2.80
2019-05-17T18:29:08.047Z,2.77
2019-05-17T18:31:58.461Z,2.77
2019-05-17T18:34:48.701Z,3.53
2019-05-17T18:37:38.976Z,3.23
2019-05-17T18:40:29.644Z,2.73
2019-05-17T18:43:19.301Z,3.10
2019-05-17T18:46:09.382Z,3.77
2019-05-17T18:48:59.338Z,2.57
2019-05-17T18:51:49.896Z,2.53
2019-05-17T18:54:41.783Z,2.87
2019-05-17T18:57:31.916Z,3.03
2019-05-17T19:00:21.819Z,2.87
2019-05-17T19:03:12.386Z,3.30
2019-05-17T19:06:02.786Z,3.00
2019-05-17T19:08:52.348Z,2.90
2019-05-17T19:11:42.147Z,3.17
2019-05-17T19:14:42.567Z,2.80
2019-05-17T19:17:23.261Z,3.40
2019-05-17T19:20:13.504Z,3.70
2019-05-17T19:23:03.250Z,3.53
2019-05-17T19:25:53.179Z,3.33
2019-05-17T19:28:42.946Z,3.73
2019-05-17T19:31:32.751Z,3.30
2019-05-17T19:34:23.106Z,3.40
2019-05-17T19:37:13.741Z,3.27
2019-05-17T19:40:04.637Z,2.97
2019-05-17T19:42:54.558Z,3.00
2019-05-17T19:45:44.581Z,3.60
2019-05-17T19:48:34.441Z,3.23
2019-05-17T19:51:28.421Z,3.33
2019-05-17T19:54:18.791Z,3.40
2019-05-17T19:57:08.657Z,3.57
2019-05-17T19:59:58.300Z,3.50
2019-05-17T20:02:47.940Z,3.60
2019-05-17T20:05:37.907Z,3.03
2019-05-17T20:08:27.681Z,3.17
2019-05-17T20:11:17.623Z,3.37
2019-05-17T20:14:07.596Z,3.53
2019-05-17T20:16:58.651Z,2.97
2019-05-17T20:19:54.007Z,4.00
2019-05-17T20:22:57.015Z,3.10
2019-05-17T20:25:46.988Z,3.73
2019-05-17T20:28:38.786Z,3.20
2019-05-17T20:31:30.171Z,4.53
2019-05-17T20:34:20.091Z,3.80
2019-05-17T20:37:09.856Z,4.00
2019-05-17T20:39:59.417Z,4.03
2019-05-17T20:42:49.742Z,4.20
2019-05-17T20:45:39.901Z,4.73
2019-05-17T20:48:29.687Z,5.33
2019-05-17T20:51:19.306Z,5.20
2019-05-17T20:54:09.816Z,3.83
2019-05-17T20:56:59.836Z,5.13
2019-05-17T20:59:49.316Z,3.73
2019-05-17T21:02:38.781Z,4.70
2019-05-17T21:05:28.701Z,3.80
2019-05-17T21:08:18.637Z,4.10
2019-05-17T21:11:08.507Z,3.97
2019-05-17T21:13:58.322Z,4.67
2019-05-17T21:16:48.382Z,4.33
2019-05-17T21:19:39.506Z,4.40
2019-05-17T21:22:29.507Z,4.17
2019-05-17T21:25:19.422Z,4.07
2019-05-17T21:28:09.117Z,3.50
2019-05-17T21:30:59.498Z,4.30
2019-05-17T21:33:49.302Z,3.83
2019-05-17T21:36:39.111Z,3.57
2019-05-17T21:39:29.436Z,3.77
2019-05-17T21:42:19.618Z,3.70
2019-05-17T21:45:10.468Z,4.87
2019-05-17T21:48:00.841Z,3.70
2019-05-17T21:50:50.428Z,4.20
2019-05-17T21:53:40.126Z,4.10
2019-05-17T21:56:30.111Z,4.50
2019-05-17T21:59:19.776Z,4.30
2019-05-17T22:02:21.576Z,4.00
2019-05-17T22:05:11.180Z,3.87
2019-05-17T22:08:01.146Z,3.93
2019-05-17T22:10:50.761Z,3.87
2019-05-17T22:13:40.347Z,3.97
2019-05-17T22:16:30.781Z,3.60
2019-05-17T22:19:21.662Z,3.77
2019-05-17T22:22:11.200Z,3.63
2019-05-17T22:25:00.541Z,4.30
2019-05-17T22:27:51.811Z,3.63
2019-05-17T22:30:41.741Z,3.77
2019-05-17T22:33:31.963Z,3.77
2019-05-17T22:36:21.828Z,3.70
2019-05-17T22:39:12.067Z,3.70
2019-05-17T22:42:01.661Z,3.67
2019-05-17T22:44:52.275Z,4.00
2019-05-17T22:47:42.026Z,3.50
2019-05-17T22:50:32.058Z,3.47
2019-05-17T22:53:22.060Z,3.10
2019-05-17T22:56:11.969Z,3.77
2019-05-17T22:59:01.709Z,4.30
2019-05-17T23:01:51.427Z,3.67
2019-05-17T23:04:41.681Z,3.73
2019-05-17T23:07:31.442Z,3.30
2019-05-17T23:10:21.626Z,3.23
2019-05-17T23:13:13.691Z,4.27
2019-05-17T23:16:06.903Z,4.40
2019-05-17T23:19:09.789Z,3.93
2019-05-17T23:21:59.473Z,3.77
2019-05-17T23:24:49.669Z,4.07
2019-05-17T23:27:39.192Z,4.53
2019-05-17T23:30:28.806Z,5.03
2019-05-17T23:33:19.138Z,4.33
2019-05-17T23:36:10.791Z,4.33
2019-05-17T23:39:00.989Z,4.50
2019-05-17T23:41:52.463Z,4.33
2019-05-17T23:44:42.449Z,4.77
2019-05-17T23:47:32.241Z,4.37
2019-05-17T23:50:22.013Z,3.33
2019-05-17T23:53:12.167Z,3.50
2019-05-17T23:56:02.176Z,3.93
2019-05-17T23:58:52.323Z,4.67
